Time;durP1;ratioP1;P1;durP2;ratioP2;P2;SDS_P1;SDS_P2;PMS_P1;PMS_P2;Temp;Humidity;BMP_temperature;BMP_pressure;BME280_temperature;BME280_humidity;BME280_pressure;Samples;Min_cycle;Max_cycle;Signal;HPM_P1;HPM_P2
2023/03/26 00:02:05;;;;;;;22.75;6.03;;;9.40;99.90;;;;;;5054030;28;20535;-59
2023/03/26 00:04:33;;;;;;;20.02;5.85;;;9.40;99.90;;;;;;5054135;28;20194;-59
2023/03/26 00:06:59;;;;;;;18.88;5.47;;;9.40;99.90;;;;;;5054062;28;20203;-59
2023/03/26 00:09:25;;;;;;;20.38;6.05;;;9.30;99.90;;;;;;5053981;28;20674;-59
2023/03/26 00:11:50;;;;;;;15.40;5.30;;;9.40;99.90;;;;;;5053886;28;20231;-59
2023/03/26 00:14:17;;;;;;;19.50;5.70;;;9.40;99.90;;;;;;5053735;28;20226;-59
2023/03/26 00:16:43;;;;;;;17.35;5.30;;;9.50;99.90;;;;;;5053969;28;20686;-59
2023/03/26 00:19:10;;;;;;;22.70;5.90;;;9.50;99.90;;;;;;5053734;28;20651;-59
2023/03/26 00:21:36;;;;;;;17.73;5.10;;;9.50;99.90;;;;;;5053893;28;20539;-60
2023/03/26 00:24:08;;;;;;;18.38;5.97;;;9.70;99.90;;;;;;5053557;28;20225;-59
2023/03/26 00:26:37;;;;;;;23.50;5.35;;;9.70;99.90;;;;;;5053604;28;20632;-59
2023/03/26 00:29:03;;;;;;;17.88;5.13;;;9.70;99.90;;;;;;5053514;28;20175;-59
2023/03/26 00:31:29;;;;;;;21.15;5.65;;;9.70;99.90;;;;;;5053666;28;20191;-59
2023/03/26 00:33:56;;;;;;;16.42;4.75;;;9.80;99.90;;;;;;5053591;28;20187;-59
2023/03/26 00:36:24;;;;;;;17.42;4.70;;;9.70;99.90;;;;;;5053562;28;20206;-58
2023/03/26 00:38:51;;;;;;;13.27;4.43;;;9.70;99.90;;;;;;5053468;28;20167;-59
2023/03/26 00:41:23;;;;;;;16.42;4.90;;;9.70;99.90;;;;;;5053409;28;20588;-59
2023/03/26 00:43:52;;;;;;;16.52;4.78;;;9.80;99.90;;;;;;5053433;28;20246;-59
2023/03/26 00:46:18;;;;;;;13.77;4.65;;;9.80;99.90;;;;;;5053535;28;20195;-59
2023/03/26 00:48:45;;;;;;;16.70;5.25;;;9.80;99.90;;;;;;5053366;28;20183;-59
2023/03/26 00:51:14;;;;;;;16.85;4.88;;;9.90;99.90;;;;;;5053225;28;20175;-59
2023/03/26 00:53:41;;;;;;;18.08;4.95;;;9.90;99.90;;;;;;5053172;28;20222;-59
2023/03/26 00:56:07;;;;;;;19.50;5.00;;;9.80;99.90;;;;;;5051860;28;20187;-59
2023/03/26 00:58:33;;;;;;;24.77;6.40;;;9.90;99.90;;;;;;5053588;28;20226;-59
2023/03/26 01:01:03;;;;;;;17.77;4.90;;;9.90;99.90;;;;;;5053319;28;20175;-59
2023/03/26 01:03:34;;;;;;;19.45;5.43;;;9.90;99.90;;;;;;5053129;28;20171;-59
2023/03/26 01:06:06;;;;;;;17.98;5.18;;;9.90;99.90;;;;;;5053150;28;20198;-59
2023/03/26 01:08:37;;;;;;;16.95;4.57;;;10.00;99.90;;;;;;5052940;28;20203;-59
2023/03/26 01:11:19;;;;;;;18.30;4.43;;;10.00;99.90;;;;;;5053210;28;20171;-59
2023/03/26 01:13:59;;;;;;;18.73;5.15;;;10.00;99.90;;;;;;5053207;28;20184;-59
2023/03/26 01:16:36;;;;;;;16.42;5.03;;;10.00;99.90;;;;;;5053086;28;20174;-59
2023/03/26 01:19:15;;;;;;;15.32;4.70;;;9.90;99.90;;;;;;5052918;28;20171;-60
2023/03/26 01:21:41;;;;;;;16.33;4.57;;;9.90;99.90;;;;;;5052844;28;20628;-59
2023/03/26 01:24:08;;;;;;;16.70;4.55;;;9.80;99.90;;;;;;5052965;28;20303;-59
2023/03/26 01:26:52;;;;;;;14.82;4.32;;;9.90;99.90;;;;;;5052864;28;20529;-59
2023/03/26 01:29:28;;;;;;;16.35;4.72;;;9.90;99.90;;;;;;5052797;28;20167;-59
2023/03/26 01:32:13;;;;;;;15.40;5.10;;;9.90;99.90;;;;;;5052947;28;20440;-59
2023/03/26 01:35:05;;;;;;;15.65;4.53;;;9.90;99.90;;;;;;5052816;28;20532;-59
2023/03/26 01:37:57;;;;;;;15.02;4.75;;;9.80;99.90;;;;;;5052764;28;20172;-59
2023/03/26 01:40:51;;;;;;;12.65;3.95;;;9.80;99.90;;;;;;5052926;28;20171;-59
2023/03/26 01:43:19;;;;;;;15.00;4.03;;;9.80;99.90;;;;;;5052840;28;20183;-59
2023/03/26 01:45:47;;;;;;;16.77;4.45;;;9.80;99.90;;;;;;5052682;28;20174;-59
2023/03/26 01:48:13;;;;;;;15.85;4.65;;;9.80;99.90;;;;;;5052589;28;20735;-59
2023/03/26 01:50:40;;;;;;;16.52;5.25;;;9.80;99.90;;;;;;5052790;28;20258;-59
2023/03/26 01:53:08;;;;;;;13.95;4.38;;;9.80;99.90;;;;;;5052714;28;20307;-59
2023/03/26 01:55:52;;;;;;;14.60;4.47;;;9.80;99.90;;;;;;5054576;28;20214;-59
2023/03/26 01:58:47;;;;;;;13.95;4.80;;;9.80;99.90;;;;;;5056488;28;20168;-59
2023/03/26 02:01:45;;;;;;;16.02;4.32;;;9.80;99.90;;;;;;5040163;28;20191;-59
2023/03/26 02:04:13;;;;;;;16.30;4.22;;;9.80;99.90;;;;;;5048134;28;20179;-59
2023/03/26 02:06:51;;;;;;;18.20;4.60;;;9.80;99.90;;;;;;5056391;28;20170;-57
2023/03/26 02:09:23;;;;;;;18.10;5.30;;;9.80;99.90;;;;;;5056155;28;20179;-59
2023/03/26 02:11:50;;;;;;;17.83;5.32;;;9.80;99.90;;;;;;5056363;28;20236;-59
2023/03/26 02:14:16;;;;;;;14.40;4.72;;;9.80;99.90;;;;;;5056329;28;20187;-59
2023/03/26 02:16:45;;;;;;;12.98;4.53;;;9.80;99.90;;;;;;5056186;28;20175;-59
2023/03/26 02:19:14;;;;;;;14.45;4.50;;;9.80;99.90;;;;;;5056032;28;20272;-57
2023/03/26 02:21:40;;;;;;;16.02;4.47;;;9.80;99.90;;;;;;5055865;28;20224;-59
2023/03/26 02:24:06;;;;;;;17.95;5.28;;;9.80;99.90;;;;;;5055814;28;20280;-59
2023/03/26 02:26:34;;;;;;;14.38;6.05;;;9.80;99.90;;;;;;5056053;28;20179;-59
2023/03/26 02:29:00;;;;;;;16.15;5.60;;;9.80;99.90;;;;;;5056013;28;20167;-59
2023/03/26 02:31:28;;;;;;;15.57;4.70;;;9.80;99.90;;;;;;5055675;28;20672;-59
2023/03/26 02:33:55;;;;;;;17.15;5.28;;;9.80;99.90;;;;;;5055786;28;20183;-59
2023/03/26 02:36:25;;;;;;;15.60;4.60;;;9.80;99.90;;;;;;5055719;28;20559;-59
2023/03/26 02:38:52;;;;;;;15.57;4.55;;;9.80;99.90;;;;;;5055923;28;20175;-59
2023/03/26 02:41:17;;;;;;;12.85;4.43;;;9.80;99.90;;;;;;5055749;28;20217;-59
2023/03/26 02:43:43;;;;;;;19.95;4.78;;;9.80;99.90;;;;;;5055740;28;20203;-59
2023/03/26 02:46:09;;;;;;;15.98;4.78;;;9.80;99.90;;;;;;5055576;28;20232;-59
2023/03/26 02:48:35;;;;;;;15.90;4.72;;;9.80;99.90;;;;;;5055509;28;20176;-59
2023/03/26 02:51:01;;;;;;;12.85;4.15;;;9.80;99.90;;;;;;5055372;28;20175;-59
2023/03/26 02:53:30;;;;;;;13.82;4.72;;;9.80;99.90;;;;;;5055456;28;20210;-59
2023/03/26 02:55:59;;;;;;;14.60;4.85;;;9.80;99.90;;;;;;5055486;28;20179;-59
2023/03/26 02:58:26;;;;;;;15.07;4.30;;;9.80;99.90;;;;;;5055499;28;20179;-59
2023/03/26 03:00:55;;;;;;;15.63;4.63;;;9.80;99.90;;;;;;5055327;28;20202;-59
2023/03/26 03:03:25;;;;;;;16.00;4.10;;;9.80;99.90;;;;;;5055116;28;20184;-59
2023/03/26 03:05:55;;;;;;;17.77;4.78;;;9.80;99.90;;;;;;5055415;28;20171;-59
2023/03/26 03:08:22;;;;;;;16.27;4.70;;;9.90;99.90;;;;;;5055258;28;20164;-59
2023/03/26 03:11:09;;;;;;;13.35;4.10;;;9.90;99.90;;;;;;5055154;28;20171;-59
2023/03/26 03:13:34;;;;;;;13.95;4.25;;;9.90;99.90;;;;;;5054944;28;20195;-59
2023/03/26 03:16:00;;;;;;;11.75;4.10;;;9.80;99.90;;;;;;5054935;28;20171;-59
2023/03/26 03:18:26;;;;;;;14.45;4.32;;;9.80;99.90;;;;;;5055164;28;20225;-59
2023/03/26 03:20:52;;;;;;;19.10;5.18;;;9.70;99.90;;;;;;5054861;28;20179;-59
2023/03/26 03:23:19;;;;;;;14.15;4.57;;;9.70;99.90;;;;;;5054724;28;20601;-59
2023/03/26 03:25:45;;;;;;;14.50;4.75;;;9.70;99.90;;;;;;5054875;28;20509;-59
2023/03/26 03:28:10;;;;;;;15.20;5.18;;;9.80;99.90;;;;;;5054691;28;20198;-59
2023/03/26 03:30:36;;;;;;;16.38;5.22;;;9.80;99.90;;;;;;5054625;28;20175;-59
2023/03/26 03:33:02;;;;;;;11.40;4.15;;;9.80;99.90;;;;;;5054788;28;20729;-59
2023/03/26 03:35:28;;;;;;;14.80;5.18;;;9.80;99.90;;;;;;5054721;28;20366;-59
2023/03/26 03:37:58;;;;;;;16.30;5.00;;;9.70;99.90;;;;;;5054643;28;20183;-59
2023/03/26 03:40:24;;;;;;;16.88;4.90;;;9.70;99.90;;;;;;5054572;28;20254;-60
2023/03/26 03:42:50;;;;;;;14.98;4.68;;;9.80;99.90;;;;;;5054456;28;20687;-59
2023/03/26 03:45:16;;;;;;;16.40;4.63;;;9.70;99.90;;;;;;5054649;28;20602;-59
2023/03/26 03:47:42;;;;;;;14.85;4.70;;;9.80;99.90;;;;;;5054402;28;20178;-59
2023/03/26 03:50:09;;;;;;;16.55;4.88;;;9.70;99.90;;;;;;5054471;28;20175;-59
2023/03/26 03:52:35;;;;;;;9.85;4.05;;;9.60;99.90;;;;;;5054322;28;20199;-59
2023/03/26 03:55:01;;;;;;;13.98;4.75;;;9.70;99.90;;;;;;5054306;28;20309;-59
2023/03/26 03:57:27;;;;;;;14.98;4.95;;;9.70;99.90;;;;;;5054189;28;20175;-59
2023/03/26 03:59:57;;;;;;;13.75;4.63;;;9.70;99.90;;;;;;5054078;28;20179;-59
2023/03/26 04:02:29;;;;;;;13.77;4.18;;;9.70;99.90;;;;;;5054216;28;20179;-59
2023/03/26 04:04:57;;;;;;;12.68;4.90;;;9.60;99.90;;;;;;5054220;28;20644;-59
2023/03/26 04:07:27;;;;;;;12.75;4.65;;;9.60;99.90;;;;;;5053993;28;20221;-59
2023/03/26 04:09:53;;;;;;;14.07;4.78;;;9.70;99.90;;;;;;5053856;28;20171;-59
2023/03/26 04:12:19;;;;;;;17.73;4.93;;;9.70;99.90;;;;;;5053764;28;20226;-59
2023/03/26 04:14:45;;;;;;;11.20;4.03;;;9.70;99.90;;;;;;5054034;28;20550;-59
2023/03/26 04:17:12;;;;;;;13.27;4.70;;;9.70;99.90;;;;;;5053732;28;20167;-59
2023/03/26 04:19:38;;;;;;;13.32;5.00;;;9.60;99.90;;;;;;5053648;28;20190;-59
2023/03/26 04:22:05;;;;;;;16.77;5.25;;;9.70;99.90;;;;;;5052573;28;20199;-59
2023/03/26 04:24:38;;;;;;;16.35;4.88;;;9.60;99.90;;;;;;5053428;28;20317;-59
2023/03/26 04:27:07;;;;;;;14.93;5.25;;;9.60;99.90;;;;;;5053900;28;20175;-59
2023/03/26 04:29:44;;;;;;;14.88;5.03;;;9.60;99.90;;;;;;5053725;28;20175;-59
2023/03/26 04:32:23;;;;;;;16.40;4.95;;;9.70;99.90;;;;;;5053628;28;20202;-59
2023/03/26 04:34:49;;;;;;;16.30;4.97;;;9.60;99.90;;;;;;5053670;28;20203;-59
2023/03/26 04:37:38;;;;;;;11.20;4.93;;;9.60;99.90;;;;;;5053413;28;20207;-59
2023/03/26 04:40:11;;;;;;;15.00;4.70;;;9.70;99.90;;;;;;5052324;28;20560;-59
2023/03/26 04:42:40;;;;;;;17.20;4.57;;;9.70;99.90;;;;;;5053532;28;20179;-59
2023/03/26 04:45:07;;;;;;;16.02;5.07;;;9.60;99.90;;;;;;5053294;28;20538;-61
2023/03/26 04:47:35;;;;;;;13.63;5.13;;;9.60;99.90;;;;;;5053223;28;20621;-61
2023/03/26 04:50:06;;;;;;;12.93;4.85;;;9.50;99.90;;;;;;5053454;28;20179;-61
2023/03/26 04:52:32;;;;;;;12.15;4.15;;;9.50;99.90;;;;;;5053285;28;20264;-61
2023/03/26 04:54:58;;;;;;;13.90;5.20;;;9.60;99.90;;;;;;5053365;28;20171;-61
2023/03/26 04:57:33;;;;;;;11.65;4.97;;;9.60;99.90;;;;;;5053255;28;20176;-61
2023/03/26 04:59:58;;;;;;;15.50;4.88;;;9.70;99.90;;;;;;5053492;28;20253;-61
2023/03/26 05:02:24;;;;;;;14.57;4.57;;;9.50;99.90;;;;;;5053039;28;20688;-58
2023/03/26 05:04:50;;;;;;;15.63;5.38;;;9.50;99.90;;;;;;5053317;28;20194;-60
2023/03/26 05:07:21;;;;;;;16.10;4.82;;;9.50;99.90;;;;;;5051990;28;20660;-60
2023/03/26 05:09:47;;;;;;;12.80;4.78;;;9.60;99.90;;;;;;5053117;28;20175;-60
2023/03/26 05:12:12;;;;;;;19.98;5.43;;;9.50;99.90;;;;;;5052950;28;20252;-60
2023/03/26 05:14:38;;;;;;;13.07;5.07;;;9.60;99.90;;;;;;5052911;28;20171;-60
2023/03/26 05:17:04;;;;;;;11.35;4.15;;;9.50;99.90;;;;;;5053159;28;20175;-60
2023/03/26 05:19:31;;;;;;;18.00;5.10;;;9.60;99.90;;;;;;5053110;28;20262;-60
2023/03/26 05:21:57;;;;;;;14.68;4.80;;;9.50;99.90;;;;;;5053141;28;20175;-60
2023/03/26 05:24:23;;;;;;;12.27;4.63;;;9.50;99.90;;;;;;5052898;28;20231;-60
2023/03/26 05:26:50;;;;;;;12.93;4.70;;;9.50;99.90;;;;;;5052679;28;20242;-60
2023/03/26 05:29:16;;;;;;;16.20;4.25;;;9.50;99.90;;;;;;5052852;28;20575;-60
2023/03/26 05:31:43;;;;;;;14.35;4.63;;;9.50;99.90;;;;;;5056730;28;20199;-60
2023/03/26 05:34:09;;;;;;;18.27;4.95;;;9.50;99.90;;;;;;5057175;28;20265;-60
2023/03/26 05:36:35;;;;;;;13.20;4.60;;;9.50;99.90;;;;;;5056919;28;20636;-57
2023/03/26 05:39:02;;;;;;;16.75;4.60;;;9.50;99.90;;;;;;5056868;28;20172;-60
2023/03/26 05:41:28;;;;;;;12.35;4.10;;;9.50;99.90;;;;;;5056807;28;20202;-60
2023/03/26 05:43:54;;;;;;;11.00;4.40;;;9.50;99.90;;;;;;5056605;28;20211;-60
2023/03/26 05:46:20;;;;;;;13.32;4.78;;;9.50;99.90;;;;;;5055978;28;20183;-60
2023/03/26 05:48:46;;;;;;;13.02;4.40;;;9.60;99.90;;;;;;5056224;28;20172;-60
2023/03/26 05:51:14;;;;;;;14.80;4.35;;;9.50;99.90;;;;;;5056728;28;20175;-61
2023/03/26 05:53:40;;;;;;;19.05;5.38;;;9.50;99.90;;;;;;5056294;28;20226;-60
2023/03/26 05:56:07;;;;;;;18.45;4.45;;;9.50;99.90;;;;;;5056451;28;20184;-60
2023/03/26 05:58:33;;;;;;;14.23;4.85;;;9.60;99.90;;;;;;5054368;28;20257;-60
2023/03/26 06:01:04;;;;;;;12.85;4.65;;;9.60;99.90;;;;;;5055851;28;20175;-61
2023/03/26 06:03:35;;;;;;;17.92;4.22;;;9.50;99.90;;;;;;5050541;28;20175;-61
2023/03/26 06:06:00;;;;;;;14.10;3.90;;;9.50;99.90;;;;;;5056111;28;20179;-60
2023/03/26 06:08:26;;;;;;;13.68;3.92;;;9.60;99.90;;;;;;5056148;28;20670;-60
2023/03/26 06:11:03;;;;;;;14.35;4.32;;;9.60;99.90;;;;;;5055814;28;20888;-60
2023/03/26 06:13:30;;;;;;;12.23;4.20;;;9.60;99.90;;;;;;5054174;28;20670;-60
2023/03/26 06:15:57;;;;;;;13.05;3.97;;;9.60;99.90;;;;;;5055649;28;20175;-60
2023/03/26 06:18:23;;;;;;;12.77;4.07;;;9.60;99.90;;;;;;5053958;28;20194;-62
2023/03/26 06:20:50;;;;;;;11.63;3.58;;;9.60;99.90;;;;;;5055737;28;20581;-62
2023/03/26 06:23:16;;;;;;;11.20;3.42;;;9.60;99.90;;;;;;5053211;28;20237;-62
2023/03/26 06:25:44;;;;;;;9.60;3.47;;;9.70;99.90;;;;;;5053978;28;20183;-62
2023/03/26 06:28:10;;;;;;;9.10;3.05;;;9.60;99.90;;;;;;5054115;28;20171;-62
2023/03/26 06:30:36;;;;;;;8.70;2.80;;;9.50;99.90;;;;;;5054496;28;20175;-62
2023/03/26 06:33:02;;;;;;;9.13;2.83;;;9.60;99.90;;;;;;5054523;28;20214;-62
2023/03/26 06:35:28;;;;;;;6.95;2.40;;;9.60;99.90;;;;;;5054469;28;20248;-62
2023/03/26 06:37:55;;;;;;;7.30;2.10;;;9.50;99.90;;;;;;5054350;28;20270;-62
2023/03/26 06:40:21;;;;;;;7.72;2.42;;;9.50;99.90;;;;;;5053896;28;20213;-62
2023/03/26 06:42:46;;;;;;;5.50;2.38;;;9.40;99.90;;;;;;5054362;28;20183;-62
2023/03/26 06:45:12;;;;;;;8.45;2.55;;;9.40;99.90;;;;;;5054563;28;20175;-62
2023/03/26 06:47:38;;;;;;;7.63;1.90;;;9.40;99.90;;;;;;5054092;28;20516;-62
2023/03/26 06:50:04;;;;;;;6.10;2.30;;;9.30;99.90;;;;;;5053558;28;20177;-62
2023/03/26 06:52:30;;;;;;;5.35;2.28;;;9.30;99.90;;;;;;5053408;28;20207;-62
2023/03/26 06:54:56;;;;;;;6.47;2.10;;;9.30;99.90;;;;;;5053908;28;20210;-62
2023/03/26 06:57:21;;;;;;;5.60;2.30;;;9.30;99.90;;;;;;5054367;28;20179;-62
2023/03/26 06:59:47;;;;;;;7.50;2.42;;;9.30;99.90;;;;;;5053908;28;20194;-62
2023/03/26 07:02:14;;;;;;;6.68;1.90;;;9.20;99.90;;;;;;5054137;28;20290;-62
2023/03/26 07:04:39;;;;;;;5.93;2.33;;;9.30;99.90;;;;;;5053970;28;20232;-62
2023/03/26 07:07:05;;;;;;;3.47;2.00;;;9.30;99.90;;;;;;5053979;28;20254;-62
2023/03/26 07:09:31;;;;;;;4.93;2.20;;;9.20;99.90;;;;;;5053648;28;20171;-62
2023/03/26 07:11:57;;;;;;;6.70;2.20;;;9.20;99.90;;;;;;5053618;28;20274;-62
2023/03/26 07:14:23;;;;;;;6.72;2.40;;;9.30;99.90;;;;;;5053228;28;20690;-62
2023/03/26 07:16:50;;;;;;;8.57;2.85;;;9.30;99.90;;;;;;5053810;28;20183;-62
2023/03/26 07:19:16;;;;;;;6.25;2.45;;;9.20;99.90;;;;;;5053435;28;20250;-60
2023/03/26 07:21:42;;;;;;;8.88;2.40;;;9.20;99.90;;;;;;5053529;28;20286;-60
2023/03/26 07:24:12;;;;;;;6.30;2.22;;;9.30;99.90;;;;;;5014598;28;1133372;-62
2023/03/26 07:26:58;;;;;;;7.97;2.40;;;9.10;99.90;;;;;;5054757;28;20183;-62
2023/03/26 07:29:29;;;;;;;7.65;2.20;;;9.10;99.90;;;;;;5053449;28;20167;-62
2023/03/26 07:32:21;;;;;;;6.47;2.22;;;9.10;99.90;;;;;;5054528;28;20281;-62
2023/03/26 07:34:59;;;;;;;9.15;2.50;;;9.10;99.90;;;;;;5038562;28;20666;-62
2023/03/26 07:37:34;;;;;;;7.47;2.45;;;9.20;99.90;;;;;;5054782;28;20682;-62
2023/03/26 07:40:11;;;;;;;7.80;2.63;;;9.20;99.90;;;;;;5054600;28;20174;-62
2023/03/26 07:43:12;;;;;;;4.07;1.90;;;9.20;99.90;;;;;;5054527;28;20631;-62
2023/03/26 07:45:43;;;;;;;5.43;2.30;;;9.20;99.90;;;;;;5054364;28;20170;-62
2023/03/26 07:48:16;;;;;;;10.00;2.63;;;9.20;99.90;;;;;;5054353;28;20652;-62
2023/03/26 07:50:42;;;;;;;5.57;2.60;;;9.20;99.90;;;;;;5054400;28;20643;-62
2023/03/26 07:53:08;;;;;;;10.30;2.67;;;9.20;99.90;;;;;;5053427;28;20568;-62
2023/03/26 07:55:40;;;;;;;7.35;2.15;;;9.20;99.90;;;;;;5054173;28;20187;-62
2023/03/26 07:58:14;;;;;;;7.55;2.33;;;9.30;99.90;;;;;;5053816;28;20202;-62
2023/03/26 08:01:19;;;;;;;6.05;2.50;;;9.30;99.90;;;;;;5054402;28;20630;-62
2023/03/26 08:04:03;;;;;;;5.75;2.28;;;9.30;99.90;;;;;;5053913;28;20207;-62
2023/03/26 08:06:37;;;;;;;7.32;2.50;;;9.20;99.90;;;;;;5054106;28;20225;-62
2023/03/26 08:09:30;;;;;;;6.70;2.22;;;9.10;99.90;;;;;;5054101;28;20175;-62
2023/03/26 08:11:57;;;;;;;4.88;1.98;;;9.20;99.90;;;;;;5053701;28;20679;-62
2023/03/26 08:14:39;;;;;;;6.47;1.95;;;9.10;99.90;;;;;;5053572;28;20175;-62
2023/03/26 08:17:38;;;;;;;6.38;1.90;;;9.20;99.90;;;;;;5038247;28;20687;-62
2023/03/26 08:20:17;;;;;;;6.05;1.90;;;9.20;99.90;;;;;;5045484;28;20537;-62
2023/03/26 08:22:49;;;;;;;4.78;1.88;;;9.20;99.90;;;;;;5060448;28;20190;-62
2023/03/26 08:25:31;;;;;;;9.00;7.65;;;9.20;99.90;;;;;;5073742;28;20162;-62
2023/03/26 08:28:18;;;;;;;7.55;4.10;;;9.30;99.90;;;;;;5073450;28;20167;-62
2023/03/26 08:30:45;;;;;;;4.50;2.90;;;9.30;99.90;;;;;;5073399;28;20169;-62
2023/03/26 08:33:18;;;;;;;4.57;2.05;;;9.20;99.90;;;;;;5073824;28;20209;-62
2023/03/26 08:35:45;;;;;;;4.90;1.80;;;9.10;99.90;;;;;;5073236;28;20182;-62
2023/03/26 08:38:13;;;;;;;8.30;4.28;;;9.10;99.90;;;;;;5072154;28;20170;-62
2023/03/26 08:41:10;;;;;;;5.47;3.58;;;9.10;99.90;;;;;;5073420;28;20177;-62
2023/03/26 08:44:03;;;;;;;5.07;2.67;;;9.10;99.90;;;;;;5073190;28;20639;-62
2023/03/26 08:47:06;;;;;;;5.75;2.33;;;9.00;99.90;;;;;;5073434;28;20213;-62
2023/03/26 08:49:57;;;;;;;4.90;2.55;;;8.90;99.90;;;;;;5073139;28;20178;-62
2023/03/26 08:53:07;;;;;;;6.20;2.90;;;9.10;99.90;;;;;;5073173;28;20212;-62
2023/03/26 08:55:50;;;;;;;6.25;2.70;;;9.10;99.90;;;;;;5068291;28;20236;-62
2023/03/26 08:58:47;;;;;;;6.03;5.43;;;9.00;99.90;;;;;;5073084;28;20174;-62
2023/03/26 09:01:38;;;;;;;5.32;2.72;;;9.00;99.90;;;;;;5073287;28;20178;-62
2023/03/26 09:04:06;;;;;;;6.20;2.95;;;9.10;99.90;;;;;;5073041;28;20170;-62
2023/03/26 09:06:51;;;;;;;7.00;3.40;;;8.90;99.90;;;;;;5073212;28;20186;-62
2023/03/26 09:09:39;;;;;;;7.88;6.32;;;9.00;99.90;;;;;;5073179;28;20174;-62
2023/03/26 09:12:11;;;;;;;7.65;4.18;;;9.10;99.90;;;;;;5072963;28;20242;-62
2023/03/26 09:15:12;;;;;;;8.07;4.85;;;9.00;99.90;;;;;;5072875;28;20185;-62
2023/03/26 09:17:50;;;;;;;6.95;3.10;;;8.90;99.90;;;;;;5073017;28;20257;-62
2023/03/26 09:20:59;;;;;;;5.47;2.97;;;8.70;99.90;;;;;;5073079;28;20188;-62
2023/03/26 09:23:56;;;;;;;7.40;5.25;;;8.70;99.90;;;;;;5072952;28;20222;-62
2023/03/26 09:26:33;;;;;;;8.77;5.70;;;8.70;99.90;;;;;;5072987;28;20633;-62
2023/03/26 09:29:26;;;;;;;8.38;6.05;;;8.80;99.90;;;;;;5073053;28;20655;-62
2023/03/26 09:32:13;;;;;;;5.32;3.03;;;8.90;99.90;;;;;;5073072;28;20239;-62
2023/03/26 09:34:57;;;;;;;5.15;2.70;;;8.90;99.90;;;;;;5072917;28;20175;-62
2023/03/26 09:38:10;;;;;;;4.57;2.13;;;8.80;99.90;;;;;;5072719;28;20201;-62
2023/03/26 09:40:42;;;;;;;5.55;2.38;;;9.00;99.90;;;;;;5072664;28;20558;-62
2023/03/26 09:43:32;;;;;;;6.32;2.13;;;9.00;99.90;;;;;;5072756;28;20178;-62
2023/03/26 09:46:07;;;;;;;2.67;1.70;;;9.30;99.90;;;;;;5072533;28;20178;-62
2023/03/26 09:49:10;;;;;;;4.20;2.58;;;9.10;99.90;;;;;;5072857;28;20178;-62
2023/03/26 09:51:44;;;;;;;4.20;2.30;;;9.20;99.90;;;;;;5072445;28;20175;-62
2023/03/26 09:54:28;;;;;;;4.82;2.08;;;9.00;99.90;;;;;;5073109;28;20170;-62
2023/03/26 09:57:02;;;;;;;4.22;2.35;;;8.90;99.90;;;;;;5072748;28;20299;-62
2023/03/26 09:59:51;;;;;;;4.80;1.80;;;9.00;99.90;;;;;;5072693;28;20220;-61
2023/03/26 10:02:34;;;;;;;3.28;2.05;;;9.00;99.90;;;;;;5072745;28;20190;-61
2023/03/26 10:05:30;;;;;;;22.55;21.17;;;9.00;99.90;;;;;;5072741;28;20163;-61
2023/03/26 10:08:13;;;;;;;5.95;4.05;;;8.80;99.90;;;;;;5071351;28;20171;-61
2023/03/26 10:11:06;;;;;;;4.40;2.65;;;8.70;99.90;;;;;;5072427;28;20167;-61
2023/03/26 10:14:04;;;;;;;4.00;3.10;;;8.70;99.90;;;;;;5072538;28;20234;-61
2023/03/26 10:17:01;;;;;;;5.35;4.50;;;8.80;99.90;;;;;;5074386;28;20178;-61
2023/03/26 10:19:40;;;;;;;3.08;2.00;;;8.90;99.90;;;;;;5075658;28;20186;-61
2023/03/26 10:22:28;;;;;;;6.18;2.28;;;8.90;99.90;;;;;;5076107;28;20178;-61
2023/03/26 10:25:21;;;;;;;2.45;1.95;;;8.90;99.90;;;;;;5075740;28;20186;-61
2023/03/26 10:28:09;;;;;;;3.08;1.95;;;9.00;99.90;;;;;;5075606;28;20179;-61
2023/03/26 10:30:38;;;;;;;2.90;1.83;;;8.90;99.90;;;;;;5076003;28;20173;-62
2023/03/26 10:33:28;;;;;;;3.70;2.42;;;9.00;99.90;;;;;;5076175;28;20232;-61
2023/03/26 10:36:13;;;;;;;1.75;1.65;;;9.00;99.90;;;;;;5075632;28;20167;-61
2023/03/26 10:39:04;;;;;;;2.63;1.38;;;9.00;99.90;;;;;;5075892;28;20170;-61
2023/03/26 10:41:48;;;;;;;1.67;1.38;;;9.00;99.90;;;;;;5075729;28;20170;-58
2023/03/26 10:44:44;;;;;;;2.30;1.98;;;9.00;99.90;;;;;;5075716;28;20170;-58
2023/03/26 10:47:21;;;;;;;3.92;2.60;;;9.00;99.90;;;;;;5075770;28;20181;-58
2023/03/26 10:50:00;;;;;;;8.30;5.00;;;9.10;99.90;;;;;;5075562;28;20216;-59
2023/03/26 10:52:45;;;;;;;5.00;2.58;;;9.20;99.90;;;;;;5075415;28;20236;-60
2023/03/26 10:55:27;;;;;;;8.18;7.38;;;9.40;99.90;;;;;;5075599;28;20186;-59
2023/03/26 10:58:03;;;;;;;5.20;4.63;;;9.40;99.90;;;;;;5074339;28;20170;-58
2023/03/26 11:00:30;;;;;;;7.35;6.75;;;9.50;99.90;;;;;;5075471;28;20223;-59
2023/03/26 11:02:55;;;;;;;6.93;5.63;;;9.50;99.90;;;;;;5075383;28;20178;-59
2023/03/26 11:05:45;;;;;;;3.97;3.22;;;9.60;99.90;;;;;;5075207;28;20262;-59
2023/03/26 11:08:20;;;;;;;3.97;2.90;;;9.50;99.90;;;;;;5075430;28;20619;-59
2023/03/26 11:11:02;;;;;;;4.35;2.95;;;9.30;99.90;;;;;;5075248;28;20616;-59
2023/03/26 11:13:27;;;;;;;3.60;2.67;;;9.30;99.90;;;;;;5075071;28;20209;-58
2023/03/26 11:16:08;;;;;;;3.75;2.35;;;9.20;99.90;;;;;;5074896;28;20178;-58
2023/03/26 11:18:43;;;;;;;3.05;2.05;;;9.10;99.90;;;;;;5075303;28;20166;-58
2023/03/26 11:21:21;;;;;;;5.30;2.00;;;9.20;99.90;;;;;;5075090;28;20185;-58
2023/03/26 11:24:05;;;;;;;4.72;2.33;;;9.40;99.90;;;;;;5075194;28;20218;-58
2023/03/26 11:26:36;;;;;;;4.45;2.10;;;9.50;99.90;;;;;;5075209;28;20171;-58
2023/03/26 11:29:02;;;;;;;2.60;1.80;;;9.70;99.90;;;;;;5074054;28;20242;-59
2023/03/26 11:31:54;;;;;;;3.63;2.00;;;9.50;99.90;;;;;;5075116;28;20201;-58
2023/03/26 11:34:26;;;;;;;4.97;1.92;;;9.40;99.90;;;;;;5073245;28;20273;-58
2023/03/26 11:36:55;;;;;;;4.95;1.92;;;9.40;99.90;;;;;;5074958;28;20175;-59
2023/03/26 11:39:25;;;;;;;4.10;1.83;;;9.60;99.90;;;;;;5074729;28;20171;-59
2023/03/26 11:42:04;;;;;;;3.28;2.00;;;9.50;99.90;;;;;;5074455;28;20655;-59
2023/03/26 11:44:36;;;;;;;4.00;2.50;;;9.40;99.90;;;;;;5074484;28;20220;-58
2023/03/26 11:47:08;;;;;;;4.57;2.72;;;9.30;99.90;;;;;;5074540;28;20162;-59
2023/03/26 11:49:35;;;;;;;3.75;3.22;;;9.40;99.90;;;;;;5074573;28;20171;-58
2023/03/26 11:52:02;;;;;;;3.72;3.13;;;9.40;99.90;;;;;;5074300;28;20618;-59
2023/03/26 11:54:28;;;;;;;3.85;2.67;;;9.70;99.90;;;;;;5074319;28;20245;-58
2023/03/26 11:56:54;;;;;;;3.20;2.63;;;9.70;99.90;;;;;;5074346;28;20174;-59
2023/03/26 11:59:22;;;;;;;2.63;2.30;;;9.90;99.90;;;;;;5074119;28;20174;-59
2023/03/26 12:02:03;;;;;;;2.00;1.40;;;9.70;99.90;;;;;;5074310;28;20171;-59
2023/03/26 12:05:15;;;;;;;1.85;1.58;;;9.60;99.90;;;;;;5074201;28;20175;-59
2023/03/26 12:07:44;;;;;;;2.22;1.45;;;9.50;99.90;;;;;;5073139;28;20170;-59
2023/03/26 12:10:25;;;;;;;2.40;1.40;;;9.40;99.90;;;;;;5073001;28;20209;-59
2023/03/26 12:12:54;;;;;;;2.65;1.27;;;9.40;99.90;;;;;;5074022;28;20691;-59
2023/03/26 12:15:21;;;;;;;2.17;1.38;;;9.50;99.90;;;;;;5073953;28;20630;-59
2023/03/26 12:17:52;;;;;;;1.75;1.33;;;9.60;99.90;;;;;;5073900;28;20636;-59
2023/03/26 12:20:23;;;;;;;2.00;1.77;;;9.80;99.90;;;;;;5073695;28;20171;-59
2023/03/26 12:22:57;;;;;;;2.88;1.90;;;9.80;99.90;;;;;;5072613;28;20643;-59
2023/03/26 12:25:25;;;;;;;3.15;1.85;;;9.80;99.90;;;;;;5073766;28;20282;-60
2023/03/26 12:28:11;;;;;;;4.30;2.10;;;9.70;99.90;;;;;;5073556;28;20562;-59
2023/03/26 12:30:40;;;;;;;4.72;1.85;;;9.80;99.90;;;;;;5073652;28;20223;-59
2023/03/26 12:33:20;;;;;;;2.60;1.75;;;9.80;99.90;;;;;;5073605;28;20201;-59
2023/03/26 12:35:48;;;;;;;2.83;1.80;;;9.70;99.90;;;;;;5073691;28;20363;-58
2023/03/26 12:38:32;;;;;;;2.10;1.90;;;9.80;99.90;;;;;;5073348;28;20183;-59
2023/03/26 12:41:07;;;;;;;2.05;1.58;;;9.80;99.90;;;;;;5073540;28;20178;-59
2023/03/26 12:43:39;;;;;;;3.53;1.95;;;9.80;99.90;;;;;;5073524;28;20174;-58
2023/03/26 12:46:24;;;;;;;1.60;1.45;;;9.80;99.90;;;;;;5073527;28;20214;-59
2023/03/26 12:48:55;;;;;;;2.60;1.77;;;9.80;99.90;;;;;;5073505;28;20174;-59
2023/03/26 12:51:33;;;;;;;1.70;1.60;;;9.90;99.90;;;;;;5073282;28;20186;-58
2023/03/26 12:54:16;;;;;;;2.03;1.70;;;10.00;99.90;;;;;;5073420;28;20551;-58
2023/03/26 12:56:53;;;;;;;2.22;1.77;;;10.10;99.90;;;;;;5073501;28;20176;-59
2023/03/26 12:59:31;;;;;;;2.05;1.67;;;10.20;99.90;;;;;;5073392;28;20293;-58
2023/03/26 13:02:24;;;;;;;3.47;1.90;;;10.20;99.90;;;;;;5073288;28;20220;-59
2023/03/26 13:04:58;;;;;;;3.30;1.85;;;10.40;99.90;;;;;;5073203;28;20170;-59
2023/03/26 13:07:36;;;;;;;1.80;1.60;;;10.70;99.90;;;;;;5073195;28;20563;-59
2023/03/26 13:10:50;;;;;;;1.67;1.20;;;10.60;99.90;;;;;;5073304;28;20619;-59
2023/03/26 13:13:45;;;;;;;1.55;1.00;;;10.30;99.90;;;;;;5067937;28;20214;-59
2023/03/26 13:16:48;;;;;;;1.45;1.10;;;10.30;99.90;;;;;;5073026;28;20267;-59
2023/03/26 13:19:22;;;;;;;1.52;0.95;;;10.20;99.90;;;;;;5073205;28;20166;-59
2023/03/26 13:22:19;;;;;;;1.83;0.90;;;10.20;99.90;;;;;;5071806;28;20284;-59
2023/03/26 13:25:14;;;;;;;1.85;1.00;;;10.20;99.90;;;;;;5072733;28;20256;-59
2023/03/26 13:28:07;;;;;;;1.95;1.45;;;10.30;99.90;;;;;;5073072;28;20171;-59